Time;durP1;ratioP1;P1;durP2;ratioP2;P2;SDS_P1;SDS_P2;PMS_P1;PMS_P2;Temp;Humidity;BMP_temperature;BMP_pressure;BME280_temperature;BME280_humidity;BME280_pressure;Samples;Min_cycle;Max_cycle;Signal;HPM_P1;HPM_P2
2022/02/13 00:01:36;;;;;;;2.63;1.60;;;0.40;91.00;;;;;;5025906;28;20026;-78
2022/02/13 00:04:02;;;;;;;3.35;1.30;;;0.30;91.00;;;;;;5025448;28;20034;-78
2022/02/13 00:06:28;;;;;;;6.55;2.47;;;0.30;91.10;;;;;;5027422;28;20064;-78
2022/02/13 00:08:54;;;;;;;2.05;1.30;;;0.30;91.10;;;;;;5027581;28;20030;-79
2022/02/13 00:11:20;;;;;;;3.40;1.65;;;0.30;91.10;;;;;;5020223;28;20037;-77
2022/02/13 00:13:46;;;;;;;2.58;1.60;;;0.30;91.10;;;;;;5029177;28;20134;-79
2022/02/13 00:16:12;;;;;;;2.40;1.20;;;0.30;91.10;;;;;;5026117;28;20049;-78
2022/02/13 00:18:38;;;;;;;3.08;1.27;;;0.30;91.00;;;;;;5026565;28;20086;-79
2022/02/13 00:21:04;;;;;;;2.50;1.38;;;0.30;90.90;;;;;;5019842;28;20398;-77
2022/02/13 00:23:29;;;;;;;1.55;1.23;;;0.30;90.80;;;;;;5019163;28;20033;-80
2022/02/13 00:25:55;;;;;;;1.27;1.13;;;0.30;90.80;;;;;;5019171;28;20022;-80
2022/02/13 00:28:21;;;;;;;2.08;1.35;;;0.30;90.60;;;;;;5019321;28;20092;-79
2022/02/13 00:30:46;;;;;;;3.53;1.63;;;0.30;90.50;;;;;;5035498;28;20040;-77
2022/02/13 00:33:16;;;;;;;3.15;1.50;;;0.30;90.30;;;;;;5024719;28;20500;-79
2022/02/13 00:35:43;;;;;;;3.42;1.80;;;0.30;90.10;;;;;;5020638;28;20387;-79
2022/02/13 00:38:09;;;;;;;2.13;1.08;;;0.30;89.90;;;;;;5017003;28;20048;-78
2022/02/13 00:40:35;;;;;;;2.90;1.70;;;0.30;89.50;;;;;;5006736;28;20303;-78
2022/02/13 00:43:01;;;;;;;1.80;1.17;;;0.30;89.00;;;;;;5014948;28;20391;-77
2022/02/13 00:45:27;;;;;;;2.88;1.30;;;0.30;88.60;;;;;;5017802;28;20040;-79
2022/02/13 00:47:53;;;;;;;3.83;1.20;;;0.40;88.30;;;;;;5018478;28;20052;-79
2022/02/13 00:50:18;;;;;;;2.40;1.10;;;0.40;87.70;;;;;;5018026;28;20061;-79
2022/02/13 00:52:44;;;;;;;2.97;1.50;;;0.40;87.20;;;;;;5017928;28;20406;-79
2022/02/13 00:55:10;;;;;;;2.60;1.48;;;0.40;86.60;;;;;;5018492;28;20037;-78
2022/02/13 00:57:36;;;;;;;3.33;1.00;;;0.40;86.10;;;;;;5018163;28;20432;-79
2022/02/13 01:00:04;;;;;;;1.30;0.90;;;0.40;85.70;;;;;;5018257;28;20032;-78
2022/02/13 01:02:30;;;;;;;2.63;1.17;;;0.40;85.40;;;;;;5017563;28;20029;-78
2022/02/13 01:04:56;;;;;;;3.47;1.48;;;0.40;85.10;;;;;;5016260;28;20056;-77
2022/02/13 01:07:22;;;;;;;3.13;1.50;;;0.40;85.00;;;;;;5023859;28;20030;-77
2022/02/13 01:09:48;;;;;;;2.95;1.35;;;0.40;85.10;;;;;;5025125;28;20094;-77
2022/02/13 01:12:13;;;;;;;2.53;1.02;;;0.40;85.20;;;;;;5008500;28;20326;-78
2022/02/13 01:14:39;;;;;;;2.15;1.20;;;0.40;85.20;;;;;;5029758;28;20049;-77
2022/02/13 01:17:05;;;;;;;3.13;1.52;;;0.40;85.10;;;;;;5030787;28;20010;-76
2022/02/13 01:19:31;;;;;;;1.40;0.98;;;0.40;84.90;;;;;;5029636;28;20453;-76
2022/02/13 01:21:58;;;;;;;4.53;1.10;;;0.40;84.60;;;;;;5023885;28;20034;-78
2022/02/13 01:24:24;;;;;;;1.83;1.02;;;0.40;84.40;;;;;;5018265;28;20089;-80
2022/02/13 01:26:50;;;;;;;1.45;1.00;;;0.40;84.00;;;;;;5017121;28;20079;-79
2022/02/13 01:29:15;;;;;;;2.33;1.42;;;0.40;83.80;;;;;;5017752;28;20391;-79
2022/02/13 01:31:41;;;;;;;4.68;1.10;;;0.40;83.70;;;;;;5015510;28;20026;-79
2022/02/13 01:34:07;;;;;;;3.33;1.30;;;0.40;83.70;;;;;;5017272;28;20030;-78
2022/02/13 01:36:33;;;;;;;3.08;1.52;;;0.40;83.60;;;;;;5016775;28;20100;-78
2022/02/13 01:38:59;;;;;;;2.33;1.30;;;0.40;83.20;;;;;;5017400;28;20049;-79
2022/02/13 01:41:25;;;;;;;2.45;1.02;;;0.40;83.00;;;;;;5010576;28;20033;-78
2022/02/13 01:43:51;;;;;;;3.80;1.45;;;0.40;82.90;;;;;;5017495;28;20026;-79
2022/02/13 01:46:16;;;;;;;2.35;1.05;;;0.50;82.30;;;;;;5016971;28;20092;-79
2022/02/13 01:48:42;;;;;;;2.30;1.35;;;0.50;81.90;;;;;;5000946;28;20525;-79
2022/02/13 01:51:08;;;;;;;1.63;1.00;;;0.50;81.50;;;;;;4999601;28;20486;-79
2022/02/13 01:53:34;;;;;;;1.50;1.00;;;0.50;81.10;;;;;;5017599;28;20026;-79
2022/02/13 01:56:01;;;;;;;1.40;0.63;;;0.50;80.80;;;;;;5017556;28;20471;-78
2022/02/13 01:58:28;;;;;;;0.80;0.55;;;0.50;80.60;;;;;;5000617;28;20525;-79
2022/02/13 02:00:54;;;;;;;2.22;0.90;;;0.50;80.50;;;;;;5016128;28;20069;-77
2022/02/13 02:03:20;;;;;;;2.13;0.70;;;0.50;80.30;;;;;;5001652;28;20053;-79
2022/02/13 02:05:46;;;;;;;2.03;0.88;;;0.50;80.00;;;;;;5057221;22;20712;-83
2022/02/13 02:08:12;;;;;;;2.03;0.82;;;0.50;79.70;;;;;;5021122;28;20032;-83
2022/02/13 02:10:38;;;;;;;1.73;0.82;;;0.50;79.20;;;;;;5019558;28;20114;-83
2022/02/13 02:13:04;;;;;;;1.67;0.88;;;0.50;78.80;;;;;;5019279;28;20112;-83
2022/02/13 02:15:30;;;;;;;1.85;0.80;;;0.50;78.40;;;;;;5036653;28;20024;-83
2022/02/13 02:17:55;;;;;;;1.70;0.77;;;0.60;78.20;;;;;;5039925;28;20014;-83
2022/02/13 02:20:21;;;;;;;2.25;1.08;;;0.50;77.90;;;;;;5041352;28;20085;-83
2022/02/13 02:22:56;;;;;;;1.48;1.02;;;0.50;77.70;;;;;;5041541;28;20389;-84
2022/02/13 02:25:22;;;;;;;1.92;0.82;;;0.50;77.40;;;;;;5047271;28;20108;-84
2022/02/13 02:27:48;;;;;;;1.65;0.70;;;0.60;77.10;;;;;;5055739;28;20049;-84
2022/02/13 02:30:14;;;;;;;1.67;0.82;;;0.60;76.60;;;;;;5041224;28;20091;-84
2022/02/13 02:32:40;;;;;;;1.30;0.70;;;0.60;76.10;;;;;;5040459;28;20097;-85
2022/02/13 02:35:07;;;;;;;2.78;0.85;;;0.60;75.80;;;;;;5035491;28;20029;-84
2022/02/13 02:37:32;;;;;;;2.38;0.80;;;0.60;75.60;;;;;;5023474;28;20040;-84
2022/02/13 02:39:58;;;;;;;1.48;0.65;;;0.60;75.30;;;;;;5040751;28;20021;-83
2022/02/13 02:42:24;;;;;;;0.70;0.63;;;0.60;75.10;;;;;;5046200;28;20052;-84
2022/02/13 02:44:50;;;;;;;1.10;0.75;;;0.60;74.90;;;;;;5043438;28;20079;-84
2022/02/13 02:47:16;;;;;;;1.55;0.70;;;0.60;74.70;;;;;;5043051;28;20116;-84
2022/02/13 02:49:42;;;;;;;1.52;0.60;;;0.60;74.50;;;;;;5024609;28;20037;-84
2022/02/13 02:52:07;;;;;;;1.38;0.70;;;0.60;74.40;;;;;;5047917;28;20025;-84
2022/02/13 02:54:33;;;;;;;0.70;0.50;;;0.50;74.30;;;;;;5025589;28;20049;-84
2022/02/13 02:56:59;;;;;;;1.48;0.77;;;0.50;74.20;;;;;;5032761;28;20076;-84
2022/02/13 02:59:24;;;;;;;0.60;0.43;;;0.50;73.90;;;;;;5035183;28;20029;-84
2022/02/13 03:01:50;;;;;;;1.27;0.57;;;0.50;73.80;;;;;;5027439;28;20049;-83
2022/02/13 03:04:16;;;;;;;1.85;0.77;;;0.50;73.60;;;;;;5049354;28;20022;-84
2022/02/13 03:06:42;;;;;;;1.63;0.70;;;0.50;73.40;;;;;;5042802;28;20094;-84
2022/02/13 03:09:11;;;;;;;0.52;0.40;;;0.50;73.80;;;;;;5032145;28;20045;-83
2022/02/13 03:11:37;;;;;;;0.95;0.70;;;0.50;73.20;;;;;;5054272;28;20030;-85
2022/02/13 03:14:03;;;;;;;1.35;0.60;;;0.50;73.00;;;;;;5057950;28;20073;-85
2022/02/13 03:16:29;;;;;;;1.42;0.50;;;0.50;72.90;;;;;;5057636;28;20131;-85
2022/02/13 03:18:55;;;;;;;0.95;0.55;;;0.50;72.70;;;;;;5057205;28;20084;-84
2022/02/13 03:21:21;;;;;;;1.83;0.60;;;0.50;72.50;;;;;;5057919;28;20090;-84
2022/02/13 03:23:47;;;;;;;1.00;0.85;;;0.50;72.10;;;;;;5039712;28;20108;-85
2022/02/13 03:26:12;;;;;;;0.68;0.55;;;0.60;71.90;;;;;;5032475;28;20029;-85
2022/02/13 03:28:38;;;;;;;2.50;0.55;;;0.50;71.70;;;;;;5024215;28;20184;-84
2022/02/13 03:31:04;;;;;;;1.25;0.57;;;0.50;71.50;;;;;;5047041;28;20030;-85
2022/02/13 03:33:29;;;;;;;0.70;0.50;;;0.60;71.50;;;;;;5053722;28;20049;-84
2022/02/13 03:35:55;;;;;;;0.93;0.57;;;0.60;71.10;;;;;;5040325;28;20096;-84
2022/02/13 03:38:23;;;;;;;1.70;0.57;;;0.60;70.80;;;;;;5041314;28;20153;-84
2022/02/13 03:40:51;;;;;;;1.17;0.52;;;0.60;70.60;;;;;;5041924;28;20025;-84
2022/02/13 03:43:17;;;;;;;0.80;0.47;;;0.60;71.00;;;;;;5043832;28;20032;-83
2022/02/13 03:45:42;;;;;;;1.73;0.68;;;0.60;70.20;;;;;;5041872;28;20022;-84
2022/02/13 03:48:08;;;;;;;0.55;0.40;;;0.60;70.00;;;;;;5040009;28;20067;-84
2022/02/13 03:50:34;;;;;;;0.35;0.32;;;0.60;69.80;;;;;;5021777;28;20140;-84
2022/02/13 03:53:00;;;;;;;1.58;0.70;;;0.60;69.70;;;;;;5022110;28;20029;-84
2022/02/13 03:55:26;;;;;;;0.73;0.43;;;0.60;69.60;;;;;;5049348;28;20022;-84
2022/02/13 03:57:52;;;;;;;1.35;0.52;;;0.60;69.30;;;;;;5052683;28;20073;-84
2022/02/13 04:00:18;;;;;;;1.30;0.63;;;0.60;69.30;;;;;;5052847;28;20032;-84
2022/02/13 04:02:44;;;;;;;1.35;0.57;;;0.60;69.20;;;;;;5018139;28;20029;-84
2022/02/13 04:05:10;;;;;;;0.68;0.50;;;0.60;68.90;;;;;;5030085;28;20061;-84
2022/02/13 04:07:43;;;;;;;1.38;0.57;;;0.70;68.80;;;;;;5036446;28;20022;-83
2022/02/13 04:10:10;;;;;;;0.98;0.60;;;0.60;68.60;;;;;;5022693;28;20095;-84
2022/02/13 04:12:36;;;;;;;1.00;0.52;;;0.60;68.70;;;;;;5040649;28;20032;-84
2022/02/13 04:15:02;;;;;;;1.20;0.45;;;0.60;68.60;;;;;;5022058;28;20107;-83
2022/02/13 04:17:28;;;;;;;1.13;0.40;;;0.60;68.40;;;;;;5043507;28;20045;-85
2022/02/13 04:19:54;;;;;;;0.32;0.32;;;0.60;68.30;;;;;;5043974;28;20052;-85
2022/02/13 04:22:20;;;;;;;1.40;0.52;;;0.60;68.30;;;;;;5047512;28;20040;-84
2022/02/13 04:24:45;;;;;;;1.30;0.50;;;0.60;68.20;;;;;;5047599;28;20030;-84
2022/02/13 04:27:11;;;;;;;0.50;0.38;;;0.60;68.30;;;;;;5048219;28;20033;-84
2022/02/13 04:29:37;;;;;;;0.35;0.32;;;0.60;68.40;;;;;;5052919;28;20013;-85
2022/02/13 04:32:03;;;;;;;0.32;0.30;;;0.60;68.40;;;;;;5054549;28;20108;-84
2022/02/13 04:34:29;;;;;;;1.00;0.60;;;0.60;68.50;;;;;;5029763;28;20068;-84
2022/02/13 04:36:54;;;;;;;0.85;0.40;;;0.60;68.30;;;;;;5013728;28;20025;-85
2022/02/13 04:39:20;;;;;;;1.52;0.45;;;0.50;68.30;;;;;;5049301;28;20030;-84
2022/02/13 04:41:46;;;;;;;1.33;0.47;;;0.50;68.40;;;;;;5047223;28;20030;-85
2022/02/13 04:44:11;;;;;;;1.73;0.60;;;0.50;68.40;;;;;;5040663;28;20025;-84
2022/02/13 04:46:37;;;;;;;0.63;0.50;;;0.50;68.50;;;;;;5039113;28;20017;-83
2022/02/13 04:49:03;;;;;;;0.38;0.30;;;0.40;68.60;;;;;;5038544;28;20041;-83
2022/02/13 04:51:29;;;;;;;0.35;0.30;;;0.40;68.80;;;;;;5020944;28;20347;-83
2022/02/13 04:53:54;;;;;;;1.10;0.70;;;0.40;69.50;;;;;;5038571;28;20358;-83
2022/02/13 04:56:20;;;;;;;0.75;0.43;;;0.30;68.70;;;;;;5020051;28;20021;-84
2022/02/13 04:58:46;;;;;;;0.52;0.40;;;0.30;68.40;;;;;;5020860;28;20093;-83
2022/02/13 05:01:12;;;;;;;1.00;0.60;;;0.30;68.30;;;;;;5021618;28;20091;-83
2022/02/13 05:03:37;;;;;;;1.23;0.30;;;0.40;68.10;;;;;;5022787;28;20033;-83
2022/02/13 05:06:04;;;;;;;0.60;0.30;;;0.40;67.90;;;;;;5024335;28;20089;-83
2022/02/13 05:08:30;;;;;;;1.73;0.55;;;0.40;67.60;;;;;;5029164;28;20036;-83
2022/02/13 05:10:55;;;;;;;1.40;0.30;;;0.30;67.20;;;;;;5020563;28;20029;-83
2022/02/13 05:13:21;;;;;;;0.63;0.40;;;0.30;67.00;;;;;;5020697;28;20033;-83
2022/02/13 05:15:47;;;;;;;0.60;0.60;;;0.30;66.80;;;;;;5037823;28;20224;-83
2022/02/13 05:18:13;;;;;;;0.45;0.45;;;0.30;66.80;;;;;;5019636;28;20021;-83
2022/02/13 05:20:39;;;;;;;0.55;0.50;;;0.30;66.60;;;;;;5038060;28;20024;-83
2022/02/13 05:23:04;;;;;;;0.38;0.32;;;0.40;66.70;;;;;;5038817;28;20034;-83
2022/02/13 05:25:30;;;;;;;1.00;0.60;;;0.40;66.70;;;;;;5038269;28;20025;-83
2022/02/13 05:27:56;;;;;;;0.50;0.30;;;0.30;66.70;;;;;;5037921;28;20056;-83
2022/02/13 05:30:21;;;;;;;1.27;0.50;;;0.30;66.60;;;;;;5020581;28;20466;-83
2022/02/13 05:32:47;;;;;;;2.28;0.40;;;0.30;66.70;;;;;;5042283;28;20037;-83
2022/02/13 05:35:13;;;;;;;0.93;0.30;;;0.30;66.70;;;;;;5033540;28;20026;-83
2022/02/13 05:37:39;;;;;;;2.97;0.45;;;0.30;66.60;;;;;;5038342;28;20025;-83
2022/02/13 05:40:06;;;;;;;1.38;0.55;;;0.30;66.60;;;;;;5038584;28;20081;-83
2022/02/13 05:42:32;;;;;;;1.58;0.50;;;0.30;66.60;;;;;;5020342;28;20029;-82
2022/02/13 05:44:58;;;;;;;0.50;0.38;;;0.30;66.70;;;;;;5038027;28;20032;-83
2022/02/13 05:47:23;;;;;;;0.38;0.30;;;0.30;66.70;;;;;;5037432;28;20092;-84
2022/02/13 05:49:50;;;;;;;1.10;0.30;;;0.30;66.50;;;;;;5019565;28;20045;-83
2022/02/13 05:52:16;;;;;;;0.30;0.30;;;0.30;66.10;;;;;;5039593;28;20030;-83
2022/02/13 05:54:41;;;;;;;0.90;0.60;;;0.30;66.00;;;;;;5042562;28;20070;-83
2022/02/13 05:57:07;;;;;;;0.77;0.40;;;0.30;66.00;;;;;;5041641;28;20101;-84
2022/02/13 05:59:33;;;;;;;0.38;0.30;;;0.30;65.80;;;;;;5024224;28;20522;-83
2022/02/13 06:01:59;;;;;;;0.77;0.40;;;0.30;65.70;;;;;;5042069;28;20026;-83
2022/02/13 06:04:25;;;;;;;0.98;0.50;;;0.30;65.60;;;;;;5023924;28;20039;-83
2022/02/13 06:06:53;;;;;;;1.23;0.47;;;0.30;65.70;;;;;;5025651;28;20040;-83
2022/02/13 06:09:19;;;;;;;0.35;0.35;;;0.20;65.80;;;;;;5042648;28;20064;-82
2022/02/13 06:11:46;;;;;;;0.28;0.28;;;0.20;65.90;;;;;;5041177;28;20519;-82
2022/02/13 06:14:12;;;;;;;0.45;0.20;;;0.20;66.00;;;;;;5043701;28;20108;-83
2022/02/13 06:16:38;;;;;;;1.00;0.40;;;0.20;66.00;;;;;;5039019;28;20022;-83
2022/02/13 06:19:04;;;;;;;0.77;0.35;;;0.30;66.10;;;;;;5039541;28;20026;-83
2022/02/13 06:21:30;;;;;;;0.20;0.20;;;0.40;66.10;;;;;;5042738;28;20030;-84
2022/02/13 06:23:57;;;;;;;0.30;0.30;;;0.40;66.00;;;;;;5026995;28;20063;-83
2022/02/13 06:26:23;;;;;;;1.05;0.60;;;0.40;66.00;;;;;;5051902;28;20022;-83
2022/02/13 06:28:49;;;;;;;0.38;0.38;;;0.40;66.10;;;;;;5021718;28;20021;-84
2022/02/13 06:31:15;;;;;;;1.00;0.40;;;0.40;65.90;;;;;;5040810;28;20040;-84
2022/02/13 06:33:40;;;;;;;1.42;0.50;;;0.50;65.50;;;;;;5040377;28;20021;-83
2022/02/13 06:36:06;;;;;;;2.15;0.50;;;0.50;65.30;;;;;;5016240;28;20017;-84
2022/02/13 06:38:32;;;;;;;0.22;0.22;;;0.50;65.20;;;;;;5022486;28;20034;-84
2022/02/13 06:40:58;;;;;;;0.85;0.65;;;0.50;64.90;;;;;;5041408;28;20098;-83
2022/02/13 06:43:24;;;;;;;1.00;0.63;;;0.60;64.80;;;;;;5022976;28;20157;-83
2022/02/13 06:45:50;;;;;;;0.45;0.40;;;0.50;64.80;;;;;;5023279;28;20026;-83
2022/02/13 06:48:15;;;;;;;1.58;0.93;;;0.60;65.10;;;;;;5040882;28;20037;-84
2022/02/13 06:50:41;;;;;;;1.00;0.50;;;0.50;65.20;;;;;;5027828;28;20032;-84
2022/02/13 06:53:07;;;;;;;3.30;0.55;;;0.60;65.50;;;;;;5022970;28;20104;-83
2022/02/13 06:55:32;;;;;;;1.20;0.60;;;0.60;66.10;;;;;;5041299;28;20374;-83
2022/02/13 06:57:58;;;;;;;2.33;0.80;;;0.60;65.30;;;;;;5042643;28;20025;-84
2022/02/13 07:00:25;;;;;;;0.30;0.30;;;0.60;65.20;;;;;;5042827;28;20029;-83
2022/02/13 07:02:51;;;;;;;0.75;0.30;;;0.70;65.00;;;;;;5044211;28;20061;-83
2022/02/13 07:05:17;;;;;;;1.52;0.47;;;0.70;64.90;;;;;;5037085;28;20038;-84
2022/02/13 07:07:43;;;;;;;2.17;0.38;;;0.70;64.60;;;;;;5025977;28;20033;-83
2022/02/13 07:10:11;;;;;;;0.93;0.40;;;0.80;64.40;;;;;;5044949;28;20148;-84
2022/02/13 07:12:37;;;;;;;1.20;0.50;;;0.90;64.20;;;;;;5044817;28;20425;-83
2022/02/13 07:15:06;;;;;;;0.50;0.40;;;1.00;63.60;;;;;;5024816;28;20022;-84
2022/02/13 07:17:36;;;;;;;1.80;0.98;;;1.00;63.20;;;;;;5043490;28;20028;-83
2022/02/13 07:20:03;;;;;;;1.90;1.00;;;1.10;63.00;;;;;;5042787;28;20028;-84
2022/02/13 07:22:29;;;;;;;4.55;2.13;;;1.10;62.50;;;;;;5045313;28;20026;-84
2022/02/13 07:24:54;;;;;;;4.22;2.33;;;1.20;62.30;;;;;;5045239;28;20488;-83
2022/02/13 07:27:20;;;;;;;6.15;2.72;;;1.30;62.20;;;;;;5040545;28;20029;-84
2022/02/13 07:29:46;;;;;;;1.75;1.35;;;1.40;61.80;;;;;;5041195;28;20124;-84
2022/02/13 07:32:12;;;;;;;1.75;1.25;;;1.50;61.70;;;;;;5040079;28;20029;-84
2022/02/13 07:34:37;;;;;;;2.22;1.10;;;1.50;61.40;;;;;;5037889;28;20028;-84
2022/02/13 07:37:03;;;;;;;1.65;0.70;;;1.60;61.20;;;;;;5036798;28;20401;-84
2022/02/13 07:39:35;;;;;;;1.25;0.80;;;1.70;60.80;;;;;;5040789;28;20144;-84
2022/02/13 07:42:01;;;;;;;1.83;0.77;;;1.80;60.40;;;;;;5040916;28;20043;-83
2022/02/13 07:44:27;;;;;;;0.82;0.43;;;1.90;60.10;;;;;;5042977;28;20064;-84
2022/02/13 07:46:54;;;;;;;1.05;0.65;;;2.00;59.80;;;;;;5043830;28;20029;-83
2022/02/13 07:49:20;;;;;;;0.77;0.77;;;2.10;59.70;;;;;;5025495;28;20021;-84
2022/02/13 07:51:46;;;;;;;1.52;0.60;;;2.30;59.60;;;;;;5025197;28;20094;-84
2022/02/13 07:54:12;;;;;;;0.82;0.52;;;2.60;59.10;;;;;;5042009;28;20029;-85
2022/02/13 07:56:38;;;;;;;1.02;0.50;;;4.10;58.00;;;;;;5029391;28;20021;-85
2022/02/13 07:59:04;;;;;;;1.60;0.65;;;5.70;53.90;;;;;;5037168;28;20048;-83
2022/02/13 08:01:30;;;;;;;0.95;0.45;;;5.60;50.70;;;;;;5046021;28;20025;-82
2022/02/13 08:03:56;;;;;;;0.98;0.60;;;5.10;50.50;;;;;;5028408;28;20037;-84
2022/02/13 08:06:22;;;;;;;0.82;0.60;;;4.60;51.10;;;;;;5048363;28;20072;-83
2022/02/13 08:08:52;;;;;;;1.48;0.73;;;4.30;51.80;;;;;;5051635;28;20080;-84
2022/02/13 08:11:20;;;;;;;1.48;1.00;;;4.10;52.60;;;;;;5046330;28;20021;-84
2022/02/13 08:13:46;;;;;;;1.33;0.57;;;4.20;53.30;;;;;;5038500;28;20040;-85
2022/02/13 08:16:12;;;;;;;1.17;0.73;;;4.80;52.90;;;;;;5020299;28;20079;-84
2022/02/13 08:18:39;;;;;;;3.20;0.82;;;4.90;51.90;;;;;;5019955;28;20033;-84
2022/02/13 08:21:09;;;;;;;0.90;0.60;;;4.80;51.60;;;;;;5029391;23;20105;-78
2022/02/13 08:23:36;;;;;;;1.42;0.65;;;4.70;51.80;;;;;;5006549;28;20495;-78
2022/02/13 08:26:02;;;;;;;1.80;0.60;;;4.70;52.10;;;;;;5038991;28;20371;-78
2022/02/13 08:28:34;;;;;;;0.82;0.60;;;4.70;52.10;;;;;;5035167;28;20037;-77
2022/02/13 08:31:01;;;;;;;2.92;1.05;;;4.80;51.70;;;;;;5023180;28;20017;-77
2022/02/13 08:33:27;;;;;;;1.38;0.63;;;5.00;51.50;;;;;;5018386;28;20026;-78
2022/02/13 08:35:53;;;;;;;1.40;0.88;;;5.10;51.10;;;;;;5036752;28;20477;-77
2022/02/13 08:38:19;;;;;;;1.98;0.75;;;5.20;50.80;;;;;;5016472;28;20025;-77
2022/02/13 08:40:45;;;;;;;2.03;0.57;;;5.40;50.20;;;;;;5018146;28;20021;-78
2022/02/13 08:43:10;;;;;;;0.98;0.70;;;5.50;49.80;;;;;;5035017;28;20033;-78
2022/02/13 08:45:37;;;;;;;0.80;0.70;;;5.70;49.10;;;;;;5036354;28;20040;-78
2022/02/13 08:48:03;;;;;;;2.05;1.00;;;5.80;48.80;;;;;;5038304;28;20040;-76
2022/02/13 08:50:29;;;;;;;1.40;1.05;;;6.00;48.40;;;;;;5031077;28;20124;-77
2022/02/13 08:52:55;;;;;;;2.55;0.90;;;6.10;48.00;;;;;;5048822;28;20377;-78
2022/02/13 08:55:22;;;;;;;1.40;1.30;;;6.30;47.60;;;;;;5034355;28;20026;-77
2022/02/13 08:57:48;;;;;;;4.60;1.17;;;6.50;47.10;;;;;;5022221;28;20026;-78
2022/02/13 09:00:15;;;;;;;3.30;1.40;;;6.70;46.60;;;;;;5039720;28;20034;-77
2022/02/13 09:02:41;;;;;;;1.35;1.08;;;6.80;46.00;;;;;;5043885;28;20018;-77
2022/02/13 09:05:08;;;;;;;1.08;0.98;;;7.00;45.70;;;;;;5030704;28;20033;-77
2022/02/13 09:07:38;;;;;;;1.75;1.23;;;7.10;45.40;;;;;;5026283;28;20545;-77
2022/02/13 09:10:06;;;;;;;1.55;1.27;;;7.30;44.70;;;;;;5026075;28;20049;-76
2022/02/13 09:12:32;;;;;;;1.77;1.20;;;7.50;44.30;;;;;;5036200;28;20385;-77
2022/02/13 09:14:58;;;;;;;1.00;1.00;;;7.60;43.90;;;;;;5035714;28;20092;-77
2022/02/13 09:17:24;;;;;;;2.28;1.13;;;7.90;43.60;;;;;;5021346;28;20118;-79
2022/02/13 09:19:50;;;;;;;0.80;0.80;;;8.10;43.10;;;;;;5021654;28;20085;-77
2022/02/13 09:22:15;;;;;;;1.45;0.80;;;8.20;42.90;;;;;;5037559;28;20033;-78
2022/02/13 09:24:44;;;;;;;0.70;0.55;;;8.30;42.20;;;;;;5038926;28;20024;-77
2022/02/13 09:27:10;;;;;;;1.63;0.90;;;8.40;41.60;;;;;;5037920;28;20052;-79
2022/02/13 09:29:37;;;;;;;2.78;1.10;;;8.50;41.60;;;;;;5033138;28;20120;-77
2022/02/13 09:32:03;;;;;;;1.58;0.98;;;8.70;41.30;;;;;;5042405;28;20113;-78
2022/02/13 09:34:32;;;;;;;0.52;0.52;;;8.80;40.90;;;;;;5023791;28;20413;-78
2022/02/13 09:36:58;;;;;;;3.72;0.77;;;8.90;40.70;;;;;;5039855;28;20036;-78
2022/02/13 09:39:24;;;;;;;2.25;0.70;;;9.00;40.40;;;;;;5040005;28;20378;-78
2022/02/13 09:41:50;;;;;;;1.13;0.68;;;9.10;40.20;;;;;;5033833;28;20092;-79
2022/02/13 09:44:17;;;;;;;2.00;0.80;;;9.30;39.90;;;;;;5016874;28;20155;-79
2022/02/13 09:46:50;;;;;;;1.92;1.23;;;9.40;39.10;;;;;;5015494;28;20494;-77
2022/02/13 09:49:17;;;;;;;1.95;0.75;;;9.50;39.10;;;;;;5020207;28;20387;-78
2022/02/13 09:51:43;;;;;;;1.00;0.70;;;9.70;39.20;;;;;;5014437;28;20064;-79
2022/02/13 09:54:09;;;;;;;1.75;0.90;;;10.00;39.10;;;;;;5015443;28;20026;-78
2022/02/13 09:56:36;;;;;;;2.70;1.08;;;10.30;38.80;;;;;;5017165;28;20037;-77
2022/02/13 09:59:02;;;;;;;2.65;0.80;;;10.60;38.30;;;;;;5038496;28;20018;-78
2022/02/13 10:01:39;;;;;;;2.05;0.90;;;10.90;38.10;;;;;;5045115;28;20022;-78
2022/02/13 10:04:09;;;;;;;0.98;0.80;;;11.10;38.00;;;;;;5041688;28;20052;-78
2022/02/13 10:06:38;;;;;;;1.95;1.08;;;11.20;37.60;;;;;;5016209;28;20029;-76
2022/02/13 10:09:06;;;;;;;4.60;0.82;;;11.20;38.50;;;;;;5026291;28;20018;-76
2022/02/13 10:11:34;;;;;;;0.88;0.88;;;11.10;37.90;;;;;;5020590;28;20193;-77
2022/02/13 10:14:12;;;;;;;1.20;0.80;;;10.90;38.40;;;;;;5016020;28;20086;-76
2022/02/13 10:16:45;;;;;;;1.88;1.30;;;10.90;38.70;;;;;;5015107;28;20457;-76
2022/02/13 10:19:16;;;;;;;0.85;0.73;;;10.80;39.10;;;;;;5013714;28;20490;-79
2022/02/13 10:21:45;;;;;;;1.67;0.90;;;10.80;39.50;;;;;;5014083;28;20133;-78
2022/02/13 10:24:20;;;;;;;1.48;0.93;;;10.80;40.00;;;;;;5013773;28;20281;-77
2022/02/13 10:26:50;;;;;;;2.17;1.13;;;10.80;40.00;;;;;;5015197;28;20037;-77
2022/02/13 10:29:16;;;;;;;1.90;1.45;;;10.80;40.20;;;;;;5018404;28;20029;-78
2022/02/13 10:31:43;;;;;;;2.95;1.40;;;10.90;40.70;;;;;;5039492;28;20037;-78
2022/02/13 10:34:13;;;;;;;1.92;1.30;;;10.90;41.20;;;;;;5035560;28;20033;-78
2022/02/13 10:36:41;;;;;;;3.38;1.45;;;11.00;41.60;;;;;;5003977;28;20033;-77
2022/02/13 10:39:18;;;;;;;2.20;1.20;;;11.00;41.90;;;;;;5016848;28;20026;-77
2022/02/13 10:41:44;;;;;;;3.10;1.38;;;11.00;42.30;;;;;;5016583;28;20038;-77
2022/02/13 10:44:09;;;;;;;2.05;1.35;;;11.00;42.70;;;;;;5018652;28;20026;-78
2022/02/13 10:46:38;;;;;;;4.65;1.63;;;11.10;43.30;;;;;;5019339;28;20053;-78
2022/02/13 10:49:05;;;;;;;4.13;1.50;;;11.10;43.60;;;;;;5018713;28;20498;-78
2022/02/13 10:51:31;;;;;;;2.58;1.30;;;11.20;43.90;;;;;;5016752;28;20022;-79
2022/02/13 10:53:58;;;;;;;2.55;1.30;;;11.30;44.10;;;;;;5017108;28;20029;-77
2022/02/13 10:56:25;;;;;;;3.60;1.48;;;11.40;44.00;;;;;;5017081;28;20030;-77
2022/02/13 10:58:55;;;;;;;1.42;1.02;;;11.40;43.90;;;;;;5019490;28;20053;-79
2022/02/13 11:01:22;;;;;;;1.90;1.00;;;11.30;43.60;;;;;;5031363;28;20037;-79
2022/02/13 11:03:50;;;;;;;2.08;1.45;;;11.30;44.20;;;;;;4998729;28;20066;-78
2022/02/13 11:06:17;;;;;;;2.05;1.40;;;11.40;44.10;;;;;;4981300;28;20479;-77
2022/02/13 11:08:56;;;;;;;1.63;1.02;;;11.50;44.10;;;;;;5016723;28;20030;-79
2022/02/13 11:11:22;;;;;;;4.15;1.50;;;11.50;44.10;;;;;;5014951;28;20030;-77
2022/02/13 11:13:48;;;;;;;2.33;1.55;;;11.40;44.50;;;;;;5018084;28;20037;-79
2022/02/13 11:16:36;;;;;;;6.00;1.25;;;11.50;44.70;;;;;;5022693;28;20037;-80
2022/02/13 11:19:21;;;;;;;4.35;1.48;;;11.60;44.50;;;;;;5021048;28;20482;-78
2022/02/13 11:21:48;;;;;;;2.80;1.63;;;11.60;44.20;;;;;;5022294;28;20029;-79
2022/02/13 11:24:28;;;;;;;1.63;1.10;;;11.60;44.40;;;;;;5023539;28;20085;-78
2022/02/13 11:27:05;;;;;;;2.90;1.20;;;11.60;44.40;;;;;;5022889;28;20088;-79
2022/02/13 11:29:51;;;;;;;2.55;1.10;;;11.60;44.20;;;;;;5011611;28;20048;-81
2022/02/13 11:32:38;;;;;;;1.50;1.30;;;11.60;44.40;;;;;;5012332;28;20422;-80
2022/02/13 11:35:07;;;;;;;2.03;1.25;;;11.60;44.70;;;;;;5022703;28;20081;-80
2022/02/13 11:37:40;;;;;;;3.40;1.50;;;11.70;44.90;;;;;;5022688;28;20089;-80
2022/02/13 11:40:06;;;;;;;4.20;1.45;;;11.70;44.70;;;;;;5023396;28;20033;-80
2022/02/13 11:42:38;;;;;;;5.53;1.75;;;11.70;44.60;;;;;;5032753;28;20029;-79
2022/02/13 11:45:18;;;;;;;5.18;1.30;;;11.70;44.70;;;;;;5029377;28;20062;-79
2022/02/13 11:47:46;;;;;;;4.18;1.38;;;11.80;45.40;;;;;;5020495;28;20036;-77
2022/02/13 11:50:21;;;;;;;2.13;1.30;;;11.90;45.30;;;;;;5020312;28;20038;-79
2022/02/13 11:53:02;;;;;;;3.25;1.30;;;11.90;45.30;;;;;;5032847;28;20076;-79
2022/02/13 11:55:31;;;;;;;4.18;1.65;;;12.00;45.20;;;;;;5021426;28;20018;-79
2022/02/13 11:58:01;;;;;;;3.42;1.58;;;12.00;45.00;;;;;;5021358;28;20030;-79
2022/02/13 12:00:35;;;;;;;3.47;1.30;;;12.00;44.80;;;;;;5035130;28;20128;-78
2022/02/13 12:03:12;;;;;;;4.28;1.20;;;12.10;44.90;;;;;;5035610;28;20146;-80
2022/02/13 12:05:38;;;;;;;5.22;1.45;;;12.10;45.00;;;;;;4998484;28;20031;-78
2022/02/13 12:08:04;;;;;;;3.00;1.33;;;12.20;44.70;;;;;;4981012;28;20027;-78
2022/02/13 12:10:39;;;;;;;2.20;1.20;;;12.30;44.50;;;;;;5034560;28;20120;-76
2022/02/13 12:13:09;;;;;;;3.22;1.40;;;12.50;44.10;;;;;;5023983;28;20025;-78
2022/02/13 12:15:37;;;;;;;4.78;1.58;;;12.70;43.60;;;;;;5026111;28;20053;-77
2022/02/13 12:18:10;;;;;;;3.00;1.50;;;12.60;43.60;;;;;;5018966;28;20032;-79
2022/02/13 12:20:36;;;;;;;2.17;1.17;;;12.50;43.50;;;;;;5019799;28;20036;-80
2022/02/13 12:23:11;;;;;;;4.40;1.55;;;12.30;43.50;;;;;;5021495;28;20026;-79
2022/02/13 12:25:40;;;;;;;4.45;1.60;;;12.30;43.40;;;;;;5020265;28;20037;-77
2022/02/13 12:28:08;;;;;;;3.75;1.30;;;12.30;43.50;;;;;;5021137;28;20100;-80
2022/02/13 12:30:34;;;;;;;3.80;1.60;;;12.40;43.10;;;;;;5039476;28;20033;-78
2022/02/13 12:33:02;;;;;;;3.20;1.38;;;12.40;42.40;;;;;;5041081;28;20017;-81
2022/02/13 12:35:35;;;;;;;3.08;1.33;;;12.70;42.10;;;;;;5041018;28;20378;-80
2022/02/13 12:38:03;;;;;;;3.30;1.23;;;13.00;41.30;;;;;;5041196;28;20024;-80
2022/02/13 12:40:31;;;;;;;2.78;1.30;;;13.20;41.00;;;;;;5043796;28;20018;-79
2022/02/13 12:43:04;;;;;;;2.35;1.35;;;13.30;41.00;;;;;;5042228;28;20021;-80
2022/02/13 12:45:32;;;;;;;1.60;1.00;;;13.30;39.80;;;;;;5042601;28;20025;-79
2022/02/13 12:48:00;;;;;;;2.30;1.08;;;13.10;39.30;;;;;;5039946;28;20224;-79
2022/02/13 12:50:29;;;;;;;3.20;1.00;;;13.30;40.30;;;;;;5040708;28;20056;-81
2022/02/13 12:53:04;;;;;;;2.70;1.33;;;13.30;40.70;;;;;;5022839;28;20092;-80
2022/02/13 12:55:30;;;;;;;1.92;1.08;;;13.20;41.30;;;;;;5050394;28;20041;-79